Time;durP1;ratioP1;P1;durP2;ratioP2;P2;SDS_P1;SDS_P2;PMS_P1;PMS_P2;Temp;Humidity;BMP_temperature;BMP_pressure;BME280_temperature;BME280_humidity;BME280_pressure;Samples;Min_cycle;Max_cycle;Signal;HPM_P1;HPM_P2
2021/08/03 00:01:37;;;;;;;8.10;6.00;;;16.40;99.90;;;;;;5065089;28;20374;-68
2021/08/03 00:04:10;;;;;;;5.93;5.43;;;16.40;99.90;;;;;;5051435;28;20032;-69
2021/08/03 00:06:50;;;;;;;7.85;6.13;;;16.40;99.90;;;;;;5063813;28;20016;-68
2021/08/03 00:09:17;;;;;;;8.52;5.20;;;16.40;99.90;;;;;;5054758;28;20029;-68
2021/08/03 00:11:44;;;;;;;9.05;6.63;;;16.40;99.90;;;;;;5066705;28;20029;-69
2021/08/03 00:14:10;;;;;;;9.85;5.95;;;16.40;99.90;;;;;;5057239;28;20017;-67
2021/08/03 00:16:38;;;;;;;6.70;6.10;;;16.40;99.90;;;;;;5057626;28;20053;-68
2021/08/03 00:19:04;;;;;;;7.68;5.07;;;16.40;99.90;;;;;;5065481;28;20033;-68
2021/08/03 00:21:30;;;;;;;9.55;5.55;;;16.40;99.90;;;;;;5056584;28;20051;-68
2021/08/03 00:23:56;;;;;;;8.18;5.90;;;16.40;99.90;;;;;;5056352;28;20021;-67
2021/08/03 00:26:21;;;;;;;7.65;6.20;;;16.40;99.90;;;;;;5065392;28;20484;-68
2021/08/03 00:28:49;;;;;;;6.82;6.13;;;16.40;99.90;;;;;;5055221;28;20122;-68
2021/08/03 00:31:25;;;;;;;9.40;6.38;;;16.40;99.90;;;;;;5053768;28;20024;-68
2021/08/03 00:33:55;;;;;;;7.30;5.00;;;16.40;99.90;;;;;;5062237;28;20020;-68
2021/08/03 00:36:31;;;;;;;7.20;5.68;;;16.40;99.90;;;;;;5053011;28;20029;-68
2021/08/03 00:38:58;;;;;;;11.93;5.90;;;16.40;99.90;;;;;;5051188;28;20044;-68
2021/08/03 00:41:30;;;;;;;7.70;5.65;;;16.40;99.90;;;;;;5056823;28;20029;-70
2021/08/03 00:43:57;;;;;;;7.88;5.82;;;16.40;99.90;;;;;;5052921;28;20021;-68
2021/08/03 00:46:23;;;;;;;7.70;6.40;;;16.30;99.90;;;;;;5049588;28;20039;-68
2021/08/03 00:48:48;;;;;;;6.30;5.55;;;16.30;99.90;;;;;;5050187;28;20552;-68
2021/08/03 00:51:14;;;;;;;7.50;4.93;;;16.20;99.90;;;;;;5058898;28;20070;-68
2021/08/03 00:53:43;;;;;;;7.47;5.57;;;16.20;99.90;;;;;;5048784;28;20044;-69
2021/08/03 00:56:10;;;;;;;6.30;5.68;;;16.20;99.90;;;;;;5049442;28;20024;-70
2021/08/03 00:58:37;;;;;;;7.35;5.13;;;16.10;99.90;;;;;;5051610;28;20045;-68
2021/08/03 01:01:03;;;;;;;8.30;6.32;;;16.10;99.90;;;;;;5046997;28;20525;-70
2021/08/03 01:03:28;;;;;;;6.90;5.80;;;16.00;99.90;;;;;;5053302;28;20100;-69
2021/08/03 01:06:07;;;;;;;7.68;5.57;;;16.20;99.90;;;;;;5054579;28;20045;-69
2021/08/03 01:08:46;;;;;;;7.68;5.85;;;16.30;99.90;;;;;;5054878;28;20110;-68
2021/08/03 01:11:22;;;;;;;9.00;6.07;;;16.30;99.90;;;;;;5056023;28;20048;-68
2021/08/03 01:13:58;;;;;;;7.55;6.00;;;16.20;99.90;;;;;;5051325;28;20026;-69
2021/08/03 01:16:33;;;;;;;8.75;6.20;;;16.20;99.90;;;;;;5049604;28;20089;-70
2021/08/03 01:19:20;;;;;;;8.35;7.38;;;16.30;99.90;;;;;;5054170;28;20177;-68
2021/08/03 01:21:48;;;;;;;9.65;5.68;;;16.30;99.90;;;;;;5050368;28;20058;-67
2021/08/03 01:24:30;;;;;;;7.32;6.63;;;16.30;99.90;;;;;;5048747;28;20029;-68
2021/08/03 01:26:56;;;;;;;9.85;6.47;;;16.40;99.90;;;;;;5051790;28;20477;-70
2021/08/03 01:29:24;;;;;;;7.65;6.95;;;16.40;99.90;;;;;;5057128;28;20052;-68
2021/08/03 01:31:52;;;;;;;7.43;6.65;;;16.40;99.90;;;;;;5052366;28;20032;-68
2021/08/03 01:34:19;;;;;;;11.02;6.70;;;16.40;99.90;;;;;;5052683;28;20017;-70
2021/08/03 01:36:52;;;;;;;10.93;7.30;;;16.30;99.90;;;;;;5047928;28;20032;-68
2021/08/03 01:39:35;;;;;;;8.60;7.78;;;16.20;99.90;;;;;;5051816;28;20393;-68
2021/08/03 01:42:04;;;;;;;7.72;6.97;;;16.30;99.90;;;;;;5054358;28;20441;-68
2021/08/03 01:44:32;;;;;;;12.88;7.40;;;16.30;99.90;;;;;;5052381;28;20110;-68
2021/08/03 01:47:00;;;;;;;10.75;8.55;;;16.40;99.90;;;;;;5051218;28;20028;-68
2021/08/03 01:49:26;;;;;;;11.30;7.72;;;16.30;99.90;;;;;;5056959;28;20457;-68
2021/08/03 01:51:53;;;;;;;8.35;7.57;;;16.30;99.90;;;;;;5053363;28;20082;-68
2021/08/03 01:54:20;;;;;;;12.18;7.95;;;16.20;99.90;;;;;;5055591;28;20578;-67
2021/08/03 01:56:48;;;;;;;13.48;9.15;;;16.30;99.90;;;;;;5051044;28;20025;-68
2021/08/03 01:59:14;;;;;;;10.07;7.03;;;16.20;99.90;;;;;;5047611;28;20068;-68
2021/08/03 02:01:41;;;;;;;10.25;7.43;;;16.20;99.90;;;;;;5054768;28;20021;-68
2021/08/03 02:04:07;;;;;;;14.63;8.50;;;16.20;99.90;;;;;;5051412;28;20101;-68
2021/08/03 02:06:36;;;;;;;14.95;8.13;;;16.30;99.90;;;;;;5047314;28;20025;-71
2021/08/03 02:09:02;;;;;;;11.90;8.88;;;16.30;99.90;;;;;;5056289;28;20043;-68
2021/08/03 02:11:29;;;;;;;10.02;7.55;;;16.30;99.90;;;;;;5064448;28;20036;-68
2021/08/03 02:13:57;;;;;;;9.43;7.70;;;16.30;99.90;;;;;;5046100;28;20067;-70
2021/08/03 02:16:22;;;;;;;8.68;7.80;;;16.40;99.90;;;;;;5060418;28;20089;-70
2021/08/03 02:18:48;;;;;;;12.68;8.43;;;16.40;99.90;;;;;;5047060;28;20033;-70
2021/08/03 02:21:18;;;;;;;14.57;9.50;;;16.40;99.90;;;;;;5055551;28;20025;-70
2021/08/03 02:23:44;;;;;;;17.35;10.43;;;16.10;99.90;;;;;;5041762;28;20084;-70
2021/08/03 02:26:11;;;;;;;13.93;10.40;;;16.20;99.90;;;;;;5055831;28;20056;-70
2021/08/03 02:28:38;;;;;;;16.80;10.57;;;16.20;99.90;;;;;;5057466;28;20021;-70
2021/08/03 02:31:14;;;;;;;9.50;8.00;;;16.30;99.90;;;;;;5053768;28;20386;-69
2021/08/03 02:34:05;;;;;;;14.98;9.95;;;16.30;99.90;;;;;;5069592;28;20025;-70
2021/08/03 02:36:39;;;;;;;11.93;8.85;;;16.30;99.90;;;;;;5056492;28;20025;-70
2021/08/03 02:39:05;;;;;;;8.95;7.50;;;16.30;99.90;;;;;;5055003;28;20086;-70
2021/08/03 02:41:32;;;;;;;9.05;7.97;;;16.30;99.90;;;;;;5062746;28;20033;-70
2021/08/03 02:43:58;;;;;;;11.50;8.77;;;16.20;99.90;;;;;;5055982;28;20050;-70
2021/08/03 02:46:26;;;;;;;13.32;8.82;;;16.30;99.90;;;;;;5050292;28;20044;-71
2021/08/03 02:49:06;;;;;;;12.05;9.55;;;16.20;99.90;;;;;;5053546;28;20063;-71
2021/08/03 02:51:35;;;;;;;11.82;9.50;;;16.20;99.90;;;;;;5065148;28;20017;-70
2021/08/03 02:54:10;;;;;;;11.63;9.40;;;16.20;99.90;;;;;;5059656;28;20443;-69
2021/08/03 02:56:36;;;;;;;11.20;8.38;;;16.30;99.90;;;;;;5068445;28;20077;-69
2021/08/03 02:59:06;;;;;;;12.07;9.32;;;16.30;99.90;;;;;;5062603;28;20043;-72
2021/08/03 03:01:35;;;;;;;10.30;9.20;;;16.40;99.90;;;;;;5052671;28;20025;-70
2021/08/03 03:04:34;;;;;;;10.13;8.30;;;16.40;99.90;;;;;;5055164;28;20082;-69
2021/08/03 03:07:10;;;;;;;9.57;8.57;;;16.30;99.90;;;;;;5046548;28;20038;-70
2021/08/03 03:09:37;;;;;;;10.15;9.10;;;16.30;99.90;;;;;;5057123;28;20470;-70
2021/08/03 03:12:04;;;;;;;10.82;8.63;;;16.30;99.90;;;;;;5051038;28;20024;-69
2021/08/03 03:14:34;;;;;;;9.15;8.25;;;16.30;99.90;;;;;;5057154;28;20036;-70
2021/08/03 03:17:02;;;;;;;8.55;7.75;;;16.30;99.90;;;;;;5050742;28;20016;-71
2021/08/03 03:19:33;;;;;;;11.05;8.70;;;16.30;99.90;;;;;;5070988;28;20433;-72
2021/08/03 03:22:03;;;;;;;14.07;9.00;;;16.30;99.90;;;;;;5060618;28;20021;-71
2021/08/03 03:24:34;;;;;;;11.55;9.25;;;16.30;99.90;;;;;;5050526;28;20033;-72
2021/08/03 03:27:02;;;;;;;12.55;9.07;;;16.30;99.90;;;;;;5062301;28;20415;-72
2021/08/03 03:29:28;;;;;;;10.80;9.48;;;16.30;99.90;;;;;;5062624;28;20029;-72
2021/08/03 03:31:55;;;;;;;15.18;11.05;;;16.30;99.90;;;;;;5056485;28;20147;-72
2021/08/03 03:34:24;;;;;;;14.27;10.88;;;16.20;99.90;;;;;;5054563;28;20051;-72
2021/08/03 03:36:51;;;;;;;12.13;10.32;;;16.10;99.90;;;;;;5050653;28;20475;-72
2021/08/03 03:39:18;;;;;;;14.95;11.63;;;16.20;99.90;;;;;;5064192;28;20039;-72
2021/08/03 03:41:48;;;;;;;13.63;10.48;;;16.20;99.90;;;;;;5055709;28;20032;-72
2021/08/03 03:44:14;;;;;;;13.05;11.65;;;16.30;99.90;;;;;;5056595;28;20021;-72
2021/08/03 03:46:56;;;;;;;13.90;10.05;;;16.30;99.90;;;;;;5059523;28;20397;-72
2021/08/03 03:49:25;;;;;;;13.05;11.68;;;16.30;99.90;;;;;;5052545;28;20029;-72
2021/08/03 03:51:51;;;;;;;14.88;10.57;;;16.30;99.90;;;;;;5065035;28;20033;-71
2021/08/03 03:54:28;;;;;;;15.23;10.38;;;16.30;99.90;;;;;;5060927;28;20025;-72
2021/08/03 03:56:58;;;;;;;14.38;10.88;;;16.40;99.90;;;;;;5048233;28;20021;-72
2021/08/03 03:59:24;;;;;;;12.55;10.25;;;16.50;99.90;;;;;;5059236;28;20033;-72
2021/08/03 04:01:52;;;;;;;15.98;12.32;;;16.50;99.90;;;;;;5068999;28;20074;-72
2021/08/03 04:04:19;;;;;;;13.43;10.65;;;16.40;99.90;;;;;;5053948;28;20039;-73
2021/08/03 04:06:45;;;;;;;13.82;10.75;;;16.40;99.90;;;;;;5055732;28;20021;-72
2021/08/03 04:09:21;;;;;;;12.52;10.05;;;16.40;99.90;;;;;;5062118;28;20029;-71
2021/08/03 04:11:48;;;;;;;14.32;11.98;;;16.40;99.90;;;;;;5060753;28;20051;-70
2021/08/03 04:14:16;;;;;;;15.23;11.15;;;16.50;99.90;;;;;;5061655;28;20033;-70
2021/08/03 04:16:42;;;;;;;12.43;9.98;;;16.40;99.90;;;;;;5045352;28;20036;-70
2021/08/03 04:19:08;;;;;;;13.48;10.10;;;16.40;99.90;;;;;;5056254;28;20033;-70
2021/08/03 04:21:34;;;;;;;17.02;12.48;;;16.30;99.90;;;;;;5069096;28;20948;-70
2021/08/03 04:23:59;;;;;;;24.85;15.82;;;16.30;99.90;;;;;;5056582;28;20033;-69
2021/08/03 04:26:25;;;;;;;14.68;13.02;;;16.10;99.90;;;;;;5046624;28;20072;-71
2021/08/03 04:28:51;;;;;;;16.80;10.15;;;16.10;99.90;;;;;;5060635;28;20101;-71
2021/08/03 04:31:16;;;;;;;11.68;10.45;;;16.00;99.90;;;;;;5065543;28;20028;-71
2021/08/03 04:33:42;;;;;;;14.23;10.43;;;16.10;99.90;;;;;;5061502;28;20469;-69
2021/08/03 04:36:08;;;;;;;14.40;11.27;;;16.20;99.90;;;;;;5064998;28;20032;-70
2021/08/03 04:38:33;;;;;;;16.50;12.20;;;16.30;99.90;;;;;;5048128;28;20063;-70
2021/08/03 04:40:59;;;;;;;12.07;10.82;;;16.30;99.90;;;;;;5057675;28;20024;-71
2021/08/03 04:43:25;;;;;;;12.38;11.15;;;16.40;99.90;;;;;;5064637;28;20033;-70
2021/08/03 04:45:50;;;;;;;15.90;11.48;;;16.40;99.90;;;;;;5053248;28;20457;-70
2021/08/03 04:48:16;;;;;;;13.88;10.30;;;16.40;99.90;;;;;;5052319;28;20385;-70
2021/08/03 04:50:42;;;;;;;15.32;10.40;;;16.30;99.90;;;;;;5053117;28;20028;-70
2021/08/03 04:53:07;;;;;;;16.25;10.82;;;16.20;99.90;;;;;;5059564;28;20060;-70
2021/08/03 04:55:33;;;;;;;15.70;10.60;;;16.30;99.90;;;;;;5051472;28;20033;-70
2021/08/03 04:57:59;;;;;;;10.88;9.60;;;16.20;99.90;;;;;;5058371;28;20155;-69
2021/08/03 05:00:24;;;;;;;11.18;10.07;;;16.30;99.90;;;;;;5052055;28;20112;-70
2021/08/03 05:02:50;;;;;;;13.50;11.10;;;16.30;99.90;;;;;;5051040;28;20029;-70
2021/08/03 05:05:15;;;;;;;11.43;10.27;;;16.40;99.90;;;;;;5062735;28;20029;-70
2021/08/03 05:07:57;;;;;;;14.77;10.52;;;16.40;99.90;;;;;;5057727;28;20060;-70
2021/08/03 05:10:22;;;;;;;13.00;11.32;;;16.40;99.90;;;;;;5058836;28;20020;-70
2021/08/03 05:12:48;;;;;;;16.50;12.55;;;16.40;99.90;;;;;;5044069;28;20071;-70
2021/08/03 05:15:14;;;;;;;13.25;11.43;;;16.30;99.90;;;;;;5058643;28;20028;-70
2021/08/03 05:17:39;;;;;;;12.80;10.85;;;16.40;99.90;;;;;;5056283;28;20033;-71
2021/08/03 05:20:06;;;;;;;13.52;12.13;;;16.40;99.90;;;;;;5057093;28;20017;-70
2021/08/03 05:22:31;;;;;;;14.38;11.73;;;16.40;99.90;;;;;;5047828;28;20025;-71
2021/08/03 05:24:59;;;;;;;16.70;12.73;;;16.40;99.90;;;;;;5054421;28;20382;-71
2021/08/03 05:27:25;;;;;;;16.45;14.18;;;16.50;99.90;;;;;;5049805;28;20505;-71
2021/08/03 05:29:51;;;;;;;15.75;12.95;;;16.50;99.90;;;;;;5052506;28;20021;-71
2021/08/03 05:32:16;;;;;;;19.40;13.68;;;16.50;99.90;;;;;;5057790;28;20466;-71
2021/08/03 05:34:42;;;;;;;18.25;13.70;;;16.50;99.90;;;;;;5047611;28;20030;-72
2021/08/03 05:37:08;;;;;;;16.60;14.02;;;16.50;99.90;;;;;;5056935;28;20027;-72
2021/08/03 05:39:33;;;;;;;20.23;16.00;;;16.50;99.90;;;;;;5056725;28;20047;-71
2021/08/03 05:42:00;;;;;;;23.45;17.75;;;16.40;99.90;;;;;;5044547;28;20025;-72
2021/08/03 05:44:26;;;;;;;20.23;14.75;;;16.10;99.90;;;;;;5058602;28;20435;-72
2021/08/03 05:46:52;;;;;;;20.10;16.10;;;16.10;99.90;;;;;;5060089;28;20025;-72
2021/08/03 05:49:18;;;;;;;19.42;16.42;;;16.10;99.90;;;;;;5048738;28;20025;-73
2021/08/03 05:51:43;;;;;;;20.92;15.45;;;16.10;99.90;;;;;;5053333;28;20496;-71
2021/08/03 05:54:09;;;;;;;23.23;18.23;;;16.20;99.90;;;;;;5055831;28;20642;-72
2021/08/03 05:56:37;;;;;;;21.05;18.13;;;16.20;99.90;;;;;;5048637;28;20028;-71
2021/08/03 05:59:03;;;;;;;24.17;19.90;;;16.10;99.90;;;;;;5049803;28;20029;-70
2021/08/03 06:01:29;;;;;;;24.45;16.52;;;16.10;99.90;;;;;;5052577;28;20021;-73
2021/08/03 06:03:54;;;;;;;21.08;17.50;;;16.20;99.90;;;;;;5057394;28;20026;-72
2021/08/03 06:06:21;;;;;;;23.63;15.98;;;16.30;99.90;;;;;;5048522;28;20465;-72
2021/08/03 06:08:47;;;;;;;23.08;17.83;;;16.10;99.90;;;;;;5056071;28;20075;-73
2021/08/03 06:11:23;;;;;;;32.60;23.05;;;16.20;99.90;;;;;;5054018;28;20014;-73
2021/08/03 06:13:53;;;;;;;28.73;23.23;;;16.20;99.90;;;;;;5050831;28;20028;-75
2021/08/03 06:16:20;;;;;;;29.98;22.48;;;16.30;99.90;;;;;;5047115;28;20109;-73
2021/08/03 06:18:47;;;;;;;28.25;22.80;;;16.40;99.90;;;;;;5053081;28;20029;-73
2021/08/03 06:21:14;;;;;;;30.63;23.73;;;16.50;99.90;;;;;;5063071;28;20008;-73
2021/08/03 06:23:43;;;;;;;31.52;24.45;;;16.50;99.90;;;;;;5061302;28;20036;-73
2021/08/03 06:26:09;;;;;;;33.95;25.63;;;16.50;99.90;;;;;;5066625;28;20413;-73
2021/08/03 06:28:35;;;;;;;36.80;27.65;;;16.50;99.90;;;;;;5063358;28;20071;-71
2021/08/03 06:31:02;;;;;;;34.50;25.92;;;16.60;99.90;;;;;;5057560;28;20044;-70
2021/08/03 06:33:28;;;;;;;37.78;28.23;;;16.50;99.90;;;;;;5066842;28;20479;-70
2021/08/03 06:35:54;;;;;;;36.08;28.88;;;16.40;99.90;;;;;;5065916;28;20116;-73
2021/08/03 06:38:20;;;;;;;51.50;34.15;;;16.50;99.90;;;;;;5050124;28;20132;-69
2021/08/03 06:40:56;;;;;;;39.13;30.75;;;16.50;99.90;;;;;;5061802;28;20431;-70
2021/08/03 06:43:25;;;;;;;40.78;31.05;;;16.50;99.90;;;;;;5053537;28;20378;-71
2021/08/03 06:46:02;;;;;;;42.15;31.55;;;16.60;99.90;;;;;;5055308;28;20025;-72
2021/08/03 06:48:46;;;;;;;37.95;28.73;;;16.70;99.90;;;;;;5056646;28;20025;-70
2021/08/03 06:51:16;;;;;;;45.17;33.95;;;16.80;99.90;;;;;;5052868;28;20120;-70
2021/08/03 06:53:45;;;;;;;41.97;32.63;;;16.90;99.90;;;;;;5053365;28;20025;-69
2021/08/03 06:56:16;;;;;;;45.03;33.92;;;17.00;99.90;;;;;;5050627;28;20025;-69
2021/08/03 06:58:55;;;;;;;43.20;32.10;;;17.00;99.90;;;;;;5058486;28;20060;-70
2021/08/03 07:01:46;;;;;;;39.38;30.58;;;16.90;99.90;;;;;;5058400;28;20025;-70
2021/08/03 07:04:18;;;;;;;48.80;33.83;;;17.00;99.90;;;;;;5048938;28;20557;-72
2021/08/03 07:06:48;;;;;;;43.50;32.50;;;17.10;99.90;;;;;;5056719;28;20095;-70
2021/08/03 07:09:15;;;;;;;37.35;30.10;;;17.10;99.90;;;;;;5059024;28;20559;-72
2021/08/03 07:11:42;;;;;;;50.08;35.85;;;17.10;99.90;;;;;;5063256;28;20032;-73
2021/08/03 07:14:08;;;;;;;43.78;29.90;;;17.00;99.90;;;;;;5061076;28;20072;-70
2021/08/03 07:16:35;;;;;;;39.13;30.15;;;17.00;99.90;;;;;;5056558;28;20468;-70
2021/08/03 07:19:01;;;;;;;42.78;31.45;;;17.10;99.90;;;;;;5061218;28;20120;-69
2021/08/03 07:21:27;;;;;;;42.17;31.17;;;17.20;99.90;;;;;;5052752;28;20032;-69
2021/08/03 07:23:55;;;;;;;38.33;29.90;;;17.20;99.90;;;;;;5056275;28;20032;-70
2021/08/03 07:26:25;;;;;;;43.05;32.42;;;17.30;99.90;;;;;;5066436;28;20025;-72
2021/08/03 07:28:51;;;;;;;38.80;29.77;;;17.20;99.90;;;;;;5048897;28;20025;-71
2021/08/03 07:31:18;;;;;;;34.15;27.35;;;17.30;99.90;;;;;;5059003;28;20025;-71
2021/08/03 07:33:44;;;;;;;39.95;30.20;;;17.40;99.90;;;;;;5064547;28;20023;-72
2021/08/03 07:36:10;;;;;;;39.38;29.13;;;17.30;99.90;;;;;;5057195;28;20049;-72
2021/08/03 07:38:35;;;;;;;36.15;29.27;;;17.40;99.90;;;;;;5054622;28;20108;-71
2021/08/03 07:41:01;;;;;;;46.20;33.58;;;17.40;99.90;;;;;;5059036;28;20025;-72
2021/08/03 07:43:27;;;;;;;50.70;35.42;;;17.50;99.90;;;;;;5060549;28;20473;-72
2021/08/03 07:45:53;;;;;;;40.17;30.15;;;17.40;99.90;;;;;;5057908;28;20362;-72
2021/08/03 07:48:18;;;;;;;40.90;30.80;;;17.50;99.90;;;;;;5055384;28;20021;-72
2021/08/03 07:50:44;;;;;;;39.50;30.65;;;17.60;99.90;;;;;;5052576;28;20189;-71
2021/08/03 07:53:09;;;;;;;35.95;29.08;;;17.70;99.90;;;;;;5053825;28;20028;-72
2021/08/03 07:55:35;;;;;;;35.60;29.48;;;17.70;99.90;;;;;;5051287;28;20108;-72
2021/08/03 07:58:01;;;;;;;34.53;28.30;;;17.60;99.90;;;;;;5051770;28;20116;-71
2021/08/03 08:00:26;;;;;;;33.25;27.70;;;17.70;99.90;;;;;;5054362;28;20116;-72
2021/08/03 08:02:52;;;;;;;35.65;28.15;;;17.80;99.90;;;;;;5066444;28;20043;-72
2021/08/03 08:05:18;;;;;;;43.53;33.97;;;17.90;99.90;;;;;;5059509;28;20074;-70
2021/08/03 08:07:44;;;;;;;32.70;27.63;;;17.90;99.90;;;;;;5066586;28;20040;-71
2021/08/03 08:10:10;;;;;;;38.70;30.42;;;18.00;99.90;;;;;;5061671;28;20028;-72
2021/08/03 08:12:36;;;;;;;37.17;29.70;;;18.10;99.90;;;;;;5055645;28;20033;-72
2021/08/03 08:15:02;;;;;;;35.30;28.95;;;18.10;99.90;;;;;;5059227;28;20498;-71
2021/08/03 08:17:27;;;;;;;33.55;26.42;;;18.00;99.90;;;;;;5052286;28;20496;-72
2021/08/03 08:19:53;;;;;;;33.03;25.50;;;18.00;99.90;;;;;;5055115;28;20027;-72
2021/08/03 08:22:19;;;;;;;33.45;27.27;;;18.00;99.90;;;;;;5061893;28;20065;-72
2021/08/03 08:24:45;;;;;;;35.60;29.33;;;18.10;99.90;;;;;;5054027;28;21355;-72
2021/08/03 08:27:11;;;;;;;40.10;30.83;;;18.10;99.90;;;;;;5045549;28;20056;-68
2021/08/03 08:29:39;;;;;;;32.72;28.33;;;18.10;99.90;;;;;;5052377;28;20017;-72
2021/08/03 08:32:05;;;;;;;37.20;29.70;;;18.10;99.90;;;;;;5057649;28;20035;-72
2021/08/03 08:34:31;;;;;;;40.38;30.45;;;18.10;99.90;;;;;;5057956;28;20448;-71
2021/08/03 08:36:57;;;;;;;37.53;29.17;;;18.00;99.90;;;;;;5062994;28;20516;-72
2021/08/03 08:39:23;;;;;;;36.53;27.65;;;18.10;99.90;;;;;;5049149;28;20039;-72
2021/08/03 08:41:49;;;;;;;36.95;29.35;;;18.10;99.90;;;;;;5054011;28;20074;-70
2021/08/03 08:44:15;;;;;;;39.05;29.08;;;18.00;99.90;;;;;;5052729;28;20431;-70
2021/08/03 08:46:41;;;;;;;36.13;28.15;;;18.10;99.90;;;;;;5052013;28;20029;-70
2021/08/03 08:49:07;;;;;;;33.65;27.65;;;18.00;99.90;;;;;;5054966;28;20025;-72
2021/08/03 08:51:33;;;;;;;31.80;25.73;;;18.10;99.90;;;;;;5059074;28;20030;-70
2021/08/03 08:54:00;;;;;;;35.10;28.75;;;18.10;99.90;;;;;;5051714;28;20029;-68
2021/08/03 08:56:29;;;;;;;41.15;30.45;;;18.10;99.90;;;;;;5047346;28;20037;-69
2021/08/03 08:58:54;;;;;;;46.15;32.15;;;18.10;99.90;;;;;;5052818;28;20025;-69
2021/08/03 09:01:20;;;;;;;38.80;29.35;;;18.10;99.90;;;;;;5060137;28;20036;-69
2021/08/03 09:03:46;;;;;;;38.15;29.40;;;18.10;99.90;;;;;;5049316;28;20062;-68
2021/08/03 09:06:12;;;;;;;41.17;30.10;;;18.20;99.90;;;;;;5058551;28;20016;-71
2021/08/03 09:08:40;;;;;;;39.13;29.25;;;18.20;99.90;;;;;;5057990;28;20048;-72
2021/08/03 09:11:14;;;;;;;40.92;30.73;;;18.20;99.90;;;;;;5054052;28;20028;-69
2021/08/03 09:14:09;;;;;;;47.35;34.75;;;18.20;99.90;;;;;;5061871;28;20497;-69
2021/08/03 09:16:46;;;;;;;39.53;30.60;;;18.20;99.90;;;;;;5050689;28;20128;-69
2021/08/03 09:19:31;;;;;;;41.05;33.42;;;18.20;99.90;;;;;;5056484;28;20037;-68
2021/08/03 09:22:17;;;;;;;44.65;33.10;;;18.20;99.90;;;;;;5059885;28;20369;-69
2021/08/03 09:24:49;;;;;;;43.97;31.95;;;18.20;99.90;;;;;;5053807;28;20103;-71
2021/08/03 09:27:39;;;;;;;35.53;27.75;;;18.30;99.90;;;;;;5050173;28;20099;-69
2021/08/03 09:30:10;;;;;;;36.50;29.40;;;18.30;99.90;;;;;;5062119;28;20473;-70
2021/08/03 09:32:37;;;;;;;39.17;30.27;;;18.30;99.90;;;;;;5054331;28;20029;-68
2021/08/03 09:35:12;;;;;;;42.67;31.80;;;18.30;99.90;;;;;;5053284;28;20032;-69
2021/08/03 09:37:39;;;;;;;42.70;30.85;;;18.30;99.90;;;;;;5051821;28;20039;-72
2021/08/03 09:40:23;;;;;;;41.65;32.88;;;18.30;99.90;;;;;;5047002;28;20028;-70
2021/08/03 09:43:08;;;;;;;37.10;31.40;;;18.40;99.90;;;;;;5059677;28;20025;-71
2021/08/03 09:45:43;;;;;;;40.42;31.90;;;18.30;99.90;;;;;;5058441;28;20036;-71
2021/08/03 09:48:16;;;;;;;42.95;32.88;;;18.30;99.90;;;;;;5050751;28;20024;-71
2021/08/03 09:50:52;;;;;;;47.05;35.25;;;18.30;99.90;;;;;;5049059;28;20571;-71
2021/08/03 09:53:36;;;;;;;42.80;33.78;;;18.30;99.90;;;;;;5057421;28;20525;-72
2021/08/03 09:56:03;;;;;;;38.20;30.35;;;18.30;99.90;;;;;;5051305;28;20035;-71
2021/08/03 09:58:28;;;;;;;37.83;29.63;;;18.40;99.90;;;;;;5044789;28;20116;-71
2021/08/03 10:00:54;;;;;;;50.10;35.60;;;18.40;99.90;;;;;;5048362;28;20158;-71
2021/08/03 10:03:20;;;;;;;41.28;31.92;;;18.40;99.90;;;;;;5054965;28;20044;-71
2021/08/03 10:05:47;;;;;;;38.10;31.77;;;18.50;99.90;;;;;;5048656;28;20025;-72
2021/08/03 10:08:13;;;;;;;47.08;35.70;;;18.50;99.90;;;;;;5060665;28;20021;-71
2021/08/03 10:10:39;;;;;;;42.70;35.55;;;18.50;99.90;;;;;;5060323;28;20027;-72
2021/08/03 10:13:05;;;;;;;38.92;31.38;;;18.50;99.90;;;;;;5045263;28;20033;-72
2021/08/03 10:15:31;;;;;;;47.50;35.58;;;18.50;99.90;;;;;;5051532;28;20082;-72
2021/08/03 10:17:56;;;;;;;40.33;32.92;;;18.50;99.90;;;;;;5062747;28;20033;-72
2021/08/03 10:20:22;;;;;;;42.92;33.30;;;18.60;99.90;;;;;;5045314;28;20032;-72
2021/08/03 10:23:01;;;;;;;39.92;31.13;;;18.60;99.90;;;;;;5053845;28;20033;-73
2021/08/03 10:25:45;;;;;;;43.53;32.35;;;18.60;99.90;;;;;;5025876;28;20106;-72
2021/08/03 10:28:29;;;;;;;43.60;33.15;;;18.60;99.90;;;;;;5050827;28;20470;-72
2021/08/03 10:30:55;;;;;;;40.97;32.38;;;18.60;99.90;;;;;;5056877;28;20091;-70
2021/08/03 10:33:48;;;;;;;47.40;36.55;;;18.50;99.90;;;;;;5047390;28;20020;-72
2021/08/03 10:36:36;;;;;;;44.55;34.03;;;18.50;99.90;;;;;;5055913;28;20032;-72
2021/08/03 10:39:08;;;;;;;45.95;31.83;;;18.60;99.90;;;;;;5044045;28;20328;-72
2021/08/03 10:41:56;;;;;;;53.13;36.75;;;18.60;99.90;;;;;;5056222;28;20430;-72
2021/08/03 10:44:37;;;;;;;45.50;34.92;;;18.50;99.90;;;;;;5044839;28;20466;-72
2021/08/03 10:47:03;;;;;;;43.75;34.90;;;18.40;99.90;;;;;;5051816;28;20032;-70
2021/08/03 10:49:55;;;;;;;45.58;35.83;;;18.50;99.90;;;;;;5056659;28;20029;-72
2021/08/03 10:52:49;;;;;;;43.50;33.95;;;18.50;99.90;;;;;;5054032;28;20540;-73
2021/08/03 10:55:33;;;;;;;45.05;34.78;;;18.60;99.90;;;;;;5055253;28;20025;-69
2021/08/03 10:58:11;;;;;;;53.00;39.30;;;18.70;99.90;;;;;;5052060;28;20052;-69
2021/08/03 11:01:02;;;;;;;50.35;37.00;;;18.60;99.90;;;;;;5053815;28;20099;-69
2021/08/03 11:03:34;;;;;;;42.60;33.05;;;18.70;99.90;;;;;;5051276;28;20094;-69
2021/08/03 11:06:05;;;;;;;41.33;33.72;;;18.60;99.90;;;;;;5050639;28;20040;-69
2021/08/03 11:08:31;;;;;;;37.35;31.30;;;18.60;99.90;;;;;;5047144;28;20029;-68
2021/08/03 11:11:06;;;;;;;35.03;30.27;;;18.70;99.90;;;;;;5061519;28;20032;-68
2021/08/03 11:13:35;;;;;;;35.03;30.52;;;18.80;99.90;;;;;;5049729;28;20042;-69
2021/08/03 11:16:00;;;;;;;41.67;31.67;;;18.80;99.90;;;;;;5053952;28;20025;-69
2021/08/03 11:18:40;;;;;;;35.90;28.92;;;19.00;99.90;;;;;;5057138;28;20086;-69
2021/08/03 11:21:06;;;;;;;34.67;30.10;;;19.20;99.90;;;;;;5056972;28;20029;-69
2021/08/03 11:24:11;;;;;;;36.35;31.25;;;19.10;99.90;;;;;;5055253;28;20043;-69
2021/08/03 11:26:39;;;;;;;33.05;28.17;;;19.30;99.90;;;;;;5061016;28;20029;-68
2021/08/03 11:29:08;;;;;;;39.55;31.77;;;19.40;99.90;;;;;;5057356;28;20025;-69
2021/08/03 11:31:41;;;;;;;40.97;32.60;;;19.60;99.90;;;;;;5052505;28;20043;-70
2021/08/03 11:34:06;;;;;;;;;;;19.70;99.90;;;;;;5064921;28;20044;-65
2021/08/03 11:36:36;;;;;;;32.58;27.30;;;19.90;99.90;;;;;;5063155;28;19966;-69
2021/08/03 11:39:22;;;;;;;35.97;30.70;;;20.10;99.90;;;;;;5057090;28;20557;-69
2021/08/03 11:41:49;;;;;;;39.53;30.88;;;20.00;99.90;;;;;;5057061;28;20025;-68
2021/08/03 11:44:17;;;;;;;25.05;21.17;;;20.10;99.90;;;;;;5055945;28;20024;-69
2021/08/03 11:46:44;;;;;;;25.25;21.50;;;20.00;99.90;;;;;;5059767;28;20093;-68
2021/08/03 11:49:10;;;;;;;30.67;25.45;;;20.20;99.90;;;;;;5055964;28;20025;-68
2021/08/03 11:51:43;;;;;;;27.13;22.27;;;20.10;99.90;;;;;;5058276;28;20401;-68
2021/08/03 11:54:18;;;;;;;25.10;20.00;;;20.00;99.90;;;;;;5051721;28;20040;-70
2021/08/03 11:56:44;;;;;;;20.25;18.02;;;20.20;99.90;;;;;;5056318;28;20096;-68
2021/08/03 11:59:13;;;;;;;21.77;18.25;;;20.30;99.90;;;;;;5048823;28;20041;-68
2021/08/03 12:01:52;;;;;;;21.65;18.45;;;20.30;99.90;;;;;;5058245;28;20464;-68
2021/08/03 12:04:22;;;;;;;19.13;16.35;;;20.30;99.90;;;;;;5057605;28;20496;-68
2021/08/03 12:06:48;;;;;;;22.65;20.08;;;20.30;99.90;;;;;;5060292;28;20075;-68
2021/08/03 12:09:17;;;;;;;19.77;17.67;;;20.20;99.90;;;;;;5054260;28;20040;-68
2021/08/03 12:11:42;;;;;;;21.77;19.48;;;20.40;99.90;;;;;;5055725;28;20501;-68
2021/08/03 12:14:14;;;;;;;22.08;18.70;;;20.40;99.90;;;;;;5053737;28;20068;-68
2021/08/03 12:16:43;;;;;;;22.65;18.75;;;20.30;99.90;;;;;;5054895;28;20023;-68
2021/08/03 12:19:29;;;;;;;26.08;19.27;;;20.40;99.90;;;;;;5057468;28;20688;-68
2021/08/03 12:21:55;;;;;;;18.73;16.58;;;20.60;99.90;;;;;;5051220;28;20303;-68
2021/08/03 12:24:21;;;;;;;21.95;19.55;;;20.60;99.90;;;;;;5059884;28;20367;-68
2021/08/03 12:26:46;;;;;;;21.17;18.02;;;20.70;99.90;;;;;;5057262;28;20036;-68
2021/08/03 12:29:12;;;;;;;19.67;17.27;;;20.70;99.90;;;;;;5050318;28;20534;-68
2021/08/03 12:31:39;;;;;;;21.38;17.10;;;20.70;99.90;;;;;;5058525;28;20053;-68
2021/08/03 12:34:13;;;;;;;20.88;15.85;;;20.70;99.90;;;;;;5047877;28;20099;-68
2021/08/03 12:36:44;;;;;;;16.55;14.90;;;20.70;99.90;;;;;;5057832;28;20090;-68
2021/08/03 12:39:19;;;;;;;19.23;16.85;;;20.80;99.90;;;;;;5059628;28;20033;-68
2021/08/03 12:45:14;;;;;;;20.63;16.88;;;20.80;99.90;;;;;;5048405;28;20465;-67
2021/08/03 12:48:03;;;;;;;20.00;17.23;;;20.70;99.90;;;;;;5052860;28;20035;-69